Time;durP1;ratioP1;P1;durP2;ratioP2;P2;SDS_P1;SDS_P2;PMS_P1;PMS_P2;Temp;Humidity;BMP_temperature;BMP_pressure;BME280_temperature;BME280_humidity;BME280_pressure;Samples;Min_cycle;Max_cycle;Signal;HPM_P1;HPM_P2
2023/09/25 00:00:34;;;;;;;0.80;0.70;;;13.60;99.90;;;;;;4862202;29;20148;-77
2023/09/25 00:03:01;;;;;;;1.00;0.70;;;13.60;99.90;;;;;;4862190;29;20053;-77
2023/09/25 00:05:28;;;;;;;0.60;0.60;;;13.60;99.90;;;;;;4862142;29;20053;-77
2023/09/25 00:07:54;;;;;;;0.95;0.80;;;13.60;99.90;;;;;;4846511;29;20082;-77
2023/09/25 00:10:20;;;;;;;;;;;13.60;99.90;;;;;;4863725;29;20593;-77
2023/09/25 00:12:46;;;;;;;390.05;35.72;;;13.60;99.90;;;;;;4862380;29;19927;-77
2023/09/25 00:15:12;;;;;;;1.08;0.80;;;13.60;99.90;;;;;;4861764;29;20045;-77
2023/09/25 00:17:39;;;;;;;1.85;0.80;;;13.60;99.90;;;;;;4859863;29;20044;-78
2023/09/25 00:20:07;;;;;;;1.92;0.70;;;13.60;99.90;;;;;;4844963;29;20052;-78
2023/09/25 00:22:33;;;;;;;1.35;0.80;;;13.60;99.90;;;;;;4859996;29;20472;-78
2023/09/25 00:24:58;;;;;;;1.75;0.90;;;13.70;99.90;;;;;;4859709;29;20076;-77
2023/09/25 00:27:24;;;;;;;0.90;0.70;;;13.70;99.90;;;;;;4856089;29;20057;-77
2023/09/25 00:29:50;;;;;;;1.08;0.75;;;13.70;99.90;;;;;;4830794;29;20088;-78
2023/09/25 00:32:16;;;;;;;1.05;0.73;;;13.70;99.90;;;;;;4861862;29;20052;-78
2023/09/25 00:34:42;;;;;;;0.93;0.65;;;13.70;99.90;;;;;;4861467;29;20489;-77
2023/09/25 00:37:07;;;;;;;1.10;0.80;;;13.70;99.90;;;;;;4836856;29;20176;-77
2023/09/25 00:39:33;;;;;;;1.00;0.80;;;13.70;99.90;;;;;;4861090;29;20492;-77
2023/09/25 00:41:59;;;;;;;0.73;0.60;;;13.70;99.90;;;;;;4852303;29;20105;-77
2023/09/25 00:44:25;;;;;;;31.30;21.15;;;13.70;99.90;;;;;;4858793;29;20453;-78
2023/09/25 00:46:51;;;;;;;37.08;12.65;;;13.70;99.90;;;;;;4861299;29;20047;-78
2023/09/25 00:49:17;;;;;;;11.85;1.23;;;13.70;99.90;;;;;;4861388;29;20047;-78
2023/09/25 00:51:44;;;;;;;4.28;1.00;;;13.70;99.90;;;;;;4845806;29;20354;-78
2023/09/25 00:54:15;;;;;;;3.53;0.90;;;13.60;99.90;;;;;;4836506;29;20070;-77
2023/09/25 00:56:41;;;;;;;2.60;1.00;;;13.60;99.90;;;;;;4861195;29;20055;-77
2023/09/25 00:59:07;;;;;;;1.55;0.85;;;13.60;99.90;;;;;;4860877;29;20045;-77
2023/09/25 01:01:33;;;;;;;;;;;13.60;99.90;;;;;;4855108;29;20041;-77
2023/09/25 01:03:59;;;;;;;1.83;1.25;;;13.50;99.90;;;;;;4852676;29;20328;-77
2023/09/25 01:06:25;;;;;;;0.98;0.70;;;13.50;99.90;;;;;;4830636;29;20104;-77
2023/09/25 01:08:51;;;;;;;;;;;13.40;99.90;;;;;;4861278;29;20377;-77
2023/09/25 01:11:17;;;;;;;1.13;0.70;;;13.40;99.90;;;;;;4845510;29;20014;-77
2023/09/25 01:13:42;;;;;;;1.63;0.70;;;13.40;99.90;;;;;;4860670;29;20076;-77
2023/09/25 01:16:08;;;;;;;4.40;1.15;;;13.40;99.90;;;;;;4860916;29;20049;-77
2023/09/25 01:18:34;;;;;;;15.23;1.85;;;13.30;99.90;;;;;;4845577;29;20080;-78
2023/09/25 01:21:02;;;;;;;8.50;1.30;;;13.40;99.90;;;;;;4860879;29;20508;-78
2023/09/25 01:23:28;;;;;;;2.25;1.13;;;13.30;99.90;;;;;;4833057;29;20037;-78
2023/09/25 01:25:53;;;;;;;1.92;0.90;;;13.30;99.90;;;;;;4859252;29;20156;-77
2023/09/25 01:28:19;;;;;;;1.48;0.90;;;13.30;99.90;;;;;;4853728;29;20100;-77
2023/09/25 01:30:45;;;;;;;2.35;1.08;;;13.30;99.90;;;;;;4853081;29;20064;-77
2023/09/25 01:33:10;;;;;;;1.83;1.15;;;13.20;99.90;;;;;;4827509;29;20470;-77
2023/09/25 01:35:36;;;;;;;1.48;1.02;;;13.20;99.90;;;;;;4851614;29;20068;-77
2023/09/25 01:38:04;;;;;;;2.92;1.20;;;13.20;99.90;;;;;;4831091;29;20121;-77
2023/09/25 01:40:31;;;;;;;1.17;0.82;;;13.20;99.90;;;;;;4836472;29;20128;-77
2023/09/25 01:42:57;;;;;;;635.03;33.72;;;13.10;99.90;;;;;;4860313;29;20112;-77
2023/09/25 01:45:23;;;;;;;53.03;2.17;;;13.10;99.90;;;;;;4860494;29;20060;-77
2023/09/25 01:47:50;;;;;;;1.40;0.98;;;13.10;99.90;;;;;;4860244;29;20104;-77
2023/09/25 01:50:18;;;;;;;1.63;0.95;;;13.10;99.90;;;;;;4844699;29;20052;-77
2023/09/25 01:52:47;;;;;;;0.93;0.75;;;13.00;99.90;;;;;;4855200;29;20056;-78
2023/09/25 01:55:14;;;;;;;1.55;0.98;;;13.00;99.90;;;;;;4844668;29;20096;-78
2023/09/25 01:57:39;;;;;;;1.48;1.20;;;13.00;99.90;;;;;;4860145;29;20136;-77
2023/09/25 02:00:09;;;;;;;2.03;1.10;;;12.90;99.90;;;;;;4856987;29;20114;-77
2023/09/25 02:02:34;;;;;;;2.72;1.00;;;12.90;99.90;;;;;;4839372;29;20044;-77
2023/09/25 02:05:00;;;;;;;1.23;0.90;;;12.90;99.90;;;;;;4844719;29;20132;-77
2023/09/25 02:07:26;;;;;;;1.15;1.00;;;12.90;99.90;;;;;;4839378;29;20068;-77
2023/09/25 02:09:51;;;;;;;2.47;0.98;;;12.80;99.90;;;;;;4857874;29;20502;-77
2023/09/25 02:12:17;;;;;;;1.48;1.00;;;12.80;99.90;;;;;;4840077;29;20124;-77
2023/09/25 02:14:43;;;;;;;2.20;1.20;;;12.90;99.90;;;;;;4841751;29;20442;-77
2023/09/25 02:17:08;;;;;;;3.00;1.20;;;12.80;99.90;;;;;;4852921;29;20173;-78
2023/09/25 02:19:34;;;;;;;3.88;1.23;;;12.90;99.90;;;;;;4847269;29;20055;-77
2023/09/25 02:22:00;;;;;;;1.13;0.80;;;12.90;99.90;;;;;;4841870;29;20057;-77
2023/09/25 02:24:26;;;;;;;1.30;1.00;;;12.80;99.90;;;;;;4856435;29;20689;-77
2023/09/25 02:26:52;;;;;;;1.40;1.25;;;12.80;99.90;;;;;;4860198;29;20049;-78
2023/09/25 02:29:17;;;;;;;1.23;1.00;;;12.80;99.90;;;;;;4849682;29;20190;-77
2023/09/25 02:31:43;;;;;;;1.08;0.95;;;12.80;99.90;;;;;;4859948;29;20485;-78
2023/09/25 02:34:14;;;;;;;1.65;1.02;;;12.80;99.90;;;;;;4844850;29;20115;-78
2023/09/25 02:36:40;;;;;;;1.80;1.10;;;12.80;99.90;;;;;;4831241;29;20041;-78
2023/09/25 02:39:06;;;;;;;1.73;1.10;;;12.80;99.90;;;;;;4859353;29;20057;-77
2023/09/25 02:41:32;;;;;;;1.20;1.10;;;12.80;99.90;;;;;;4834796;29;20114;-77
2023/09/25 02:43:58;;;;;;;1.15;1.00;;;12.70;99.90;;;;;;4848857;29;20144;-78
2023/09/25 02:46:24;;;;;;;1.42;1.08;;;12.80;99.90;;;;;;4826507;29;20136;-78
2023/09/25 02:48:49;;;;;;;1.20;1.00;;;12.80;99.90;;;;;;4860245;29;20059;-78
2023/09/25 02:51:15;;;;;;;1.67;1.08;;;12.80;99.90;;;;;;4859989;29;20049;-78
2023/09/25 02:53:41;;;;;;;1.77;1.00;;;12.70;99.90;;;;;;4860124;29;20045;-78
2023/09/25 02:56:07;;;;;;;1.42;1.10;;;12.80;99.90;;;;;;4841759;29;20113;-78
2023/09/25 02:58:32;;;;;;;1.50;1.20;;;12.80;99.90;;;;;;4810847;29;20045;-77
2023/09/25 03:01:00;;;;;;;1.95;1.25;;;12.80;99.90;;;;;;4841740;29;20053;-78
2023/09/25 03:03:29;;;;;;;1.13;0.90;;;12.80;99.90;;;;;;4839526;29;20057;-78
2023/09/25 03:05:54;;;;;;;1.42;1.08;;;12.80;99.90;;;;;;4865114;29;20084;-78
2023/09/25 03:08:21;;;;;;;1.80;1.20;;;12.70;99.90;;;;;;4862551;29;20476;-78
2023/09/25 03:10:46;;;;;;;1.73;1.48;;;12.70;99.90;;;;;;4834687;29;20045;-78
2023/09/25 03:13:12;;;;;;;2.00;1.52;;;12.70;99.90;;;;;;4847797;29;20043;-78
2023/09/25 03:15:38;;;;;;;1.30;1.17;;;12.70;99.90;;;;;;4863157;29;20100;-78
2023/09/25 03:18:04;;;;;;;;;;;12.70;99.90;;;;;;4863635;29;20505;-78
2023/09/25 03:20:30;;;;;;;2.35;1.30;;;12.70;99.90;;;;;;4862722;29;20026;-78
2023/09/25 03:22:56;;;;;;;1.67;1.02;;;12.70;99.90;;;;;;4850112;29;20131;-77
2023/09/25 03:25:22;;;;;;;2.63;1.25;;;12.70;99.90;;;;;;4879783;29;20132;-78
2023/09/25 03:27:49;;;;;;;2.15;1.30;;;12.70;99.90;;;;;;4865209;29;20068;-78
2023/09/25 03:30:15;;;;;;;1.70;1.27;;;12.70;99.90;;;;;;4872065;29;20045;-78
2023/09/25 03:32:44;;;;;;;1.45;1.20;;;12.70;99.90;;;;;;4844500;29;20579;-78
2023/09/25 03:35:10;;;;;;;1.40;1.13;;;12.70;99.90;;;;;;4831518;29;20037;-78
2023/09/25 03:37:36;;;;;;;;;;;12.60;99.90;;;;;;4849273;29;20033;-77
2023/09/25 03:40:07;;;;;;;2.20;1.38;;;12.60;99.90;;;;;;4862037;29;20273;-77
2023/09/25 03:42:33;;;;;;;1.33;1.23;;;12.60;99.90;;;;;;4830036;29;20045;-77
2023/09/25 03:44:59;;;;;;;;;;;12.60;99.90;;;;;;4833895;29;20563;-77
2023/09/25 03:47:24;;;;;;;2.30;1.42;;;12.60;99.90;;;;;;4845219;29;19928;-77
2023/09/25 03:49:50;;;;;;;2.28;1.42;;;12.60;99.90;;;;;;4841024;29;20049;-77
2023/09/25 03:52:16;;;;;;;2.35;1.20;;;12.60;99.90;;;;;;4847514;29;20072;-77
2023/09/25 03:54:41;;;;;;;2.03;1.30;;;12.60;99.90;;;;;;4848614;29;20121;-77
2023/09/25 03:57:07;;;;;;;1.73;1.10;;;12.60;99.90;;;;;;4846943;29;20037;-78
2023/09/25 03:59:33;;;;;;;2.75;1.73;;;12.60;99.90;;;;;;4822749;29;20415;-80
2023/09/25 04:01:59;;;;;;;1.90;1.40;;;12.60;99.90;;;;;;4826011;29;20052;-78
2023/09/25 04:04:25;;;;;;;2.45;1.35;;;12.60;99.90;;;;;;4844518;29;20049;-79
2023/09/25 04:06:50;;;;;;;2.35;1.52;;;12.60;99.90;;;;;;4847371;29;20057;-79
2023/09/25 04:09:16;;;;;;;2.05;1.20;;;12.60;99.90;;;;;;4855643;29;20059;-79
2023/09/25 04:11:42;;;;;;;1.30;1.20;;;12.60;99.90;;;;;;4854604;29;20049;-78
2023/09/25 04:14:07;;;;;;;2.15;1.10;;;12.60;99.90;;;;;;4862354;29;20045;-78
2023/09/25 04:16:33;;;;;;;1.75;1.13;;;12.60;99.90;;;;;;4861662;29;20552;-78
2023/09/25 04:18:59;;;;;;;1.70;1.20;;;12.60;99.90;;;;;;4839312;29;20046;-78
2023/09/25 04:21:25;;;;;;;1.33;1.10;;;12.60;99.90;;;;;;4841558;29;20041;-79
2023/09/25 04:23:50;;;;;;;1.88;1.30;;;12.60;99.90;;;;;;4859280;29;20048;-78
2023/09/25 04:26:16;;;;;;;1.65;1.17;;;12.60;99.90;;;;;;4843173;29;20097;-78
2023/09/25 04:28:43;;;;;;;1.50;1.20;;;12.60;99.90;;;;;;4853616;29;20060;-77
2023/09/25 04:31:10;;;;;;;;;;;12.60;99.90;;;;;;4854475;29;20052;-78
2023/09/25 04:33:36;;;;;;;;;;;12.60;99.90;;;;;;4858229;29;19971;-80
2023/09/25 04:36:02;;;;;;;1.92;1.33;;;12.60;99.90;;;;;;4834538;29;20287;-79
2023/09/25 04:38:28;;;;;;;2.00;1.40;;;12.60;99.90;;;;;;4846599;29;20050;-80
2023/09/25 04:40:54;;;;;;;;;;;12.60;99.90;;;;;;4854860;29;20489;-80
2023/09/25 04:43:21;;;;;;;1.73;1.30;;;12.60;99.90;;;;;;4853352;29;19934;-80
2023/09/25 04:45:51;;;;;;;2.45;1.30;;;12.60;99.90;;;;;;4859586;29;20049;-80
2023/09/25 04:48:20;;;;;;;2.03;1.40;;;12.60;99.90;;;;;;4853339;29;20045;-80
2023/09/25 04:50:45;;;;;;;2.53;1.63;;;12.60;99.90;;;;;;4834613;29;20052;-80
2023/09/25 04:53:11;;;;;;;1.30;1.15;;;12.60;99.90;;;;;;4860098;29;20041;-80
2023/09/25 04:55:41;;;;;;;1.80;1.33;;;12.60;99.90;;;;;;4834277;29;20043;-80
2023/09/25 04:58:07;;;;;;;1.42;1.10;;;12.60;99.90;;;;;;4838275;29;20049;-80
2023/09/25 05:00:33;;;;;;;1.48;1.23;;;12.60;99.90;;;;;;4855693;29;20091;-80
2023/09/25 05:02:59;;;;;;;;;;;12.60;99.90;;;;;;4831383;29;20128;-80
2023/09/25 05:05:26;;;;;;;1.58;1.10;;;12.60;99.90;;;;;;4861606;29;20140;-80
2023/09/25 05:07:54;;;;;;;1.20;1.10;;;12.60;99.90;;;;;;4846354;29;20110;-80
2023/09/25 05:10:23;;;;;;;1.73;1.40;;;12.50;99.90;;;;;;4849225;29;20619;-80
2023/09/25 05:12:49;;;;;;;1.33;1.00;;;12.60;99.90;;;;;;4846685;29;20048;-80
2023/09/25 05:15:16;;;;;;;1.60;1.10;;;12.50;99.90;;;;;;4861894;29;20124;-80
2023/09/25 05:17:42;;;;;;;;;;;12.50;99.90;;;;;;4857577;29;20047;-80
2023/09/25 05:20:15;;;;;;;1.67;1.10;;;12.50;99.90;;;;;;4837719;29;20002;-80
2023/09/25 05:22:44;;;;;;;1.80;1.10;;;12.50;99.90;;;;;;4846887;29;20052;-80
2023/09/25 05:25:11;;;;;;;1.13;0.98;;;12.50;99.90;;;;;;4860905;29;20049;-79
2023/09/25 05:27:39;;;;;;;1.23;0.85;;;12.50;99.90;;;;;;4848764;29;20486;-79
2023/09/25 05:30:09;;;;;;;1.27;1.10;;;12.50;99.90;;;;;;4870353;29;20060;-79
2023/09/25 05:32:39;;;;;;;1.92;1.10;;;12.50;99.90;;;;;;4857429;29;20076;-79
2023/09/25 05:35:06;;;;;;;1.48;1.10;;;12.40;99.90;;;;;;4834573;29;20080;-79
2023/09/25 05:37:35;;;;;;;1.33;1.00;;;12.40;99.90;;;;;;4846790;29;20097;-79
2023/09/25 05:40:01;;;;;;;1.88;1.05;;;12.40;99.90;;;;;;4831654;29;20055;-79
2023/09/25 05:42:27;;;;;;;1.40;0.93;;;12.40;99.90;;;;;;4848363;29;20048;-81
2023/09/25 05:44:52;;;;;;;1.50;1.00;;;12.40;99.90;;;;;;4859494;29;20065;-81
2023/09/25 05:47:18;;;;;;;2.00;1.30;;;12.40;99.90;;;;;;4833674;29;20439;-81
2023/09/25 05:49:44;;;;;;;1.33;1.00;;;12.40;99.90;;;;;;4845126;29;20053;-80
2023/09/25 05:52:10;;;;;;;1.60;1.10;;;12.40;99.90;;;;;;4849943;29;20497;-81
2023/09/25 05:54:35;;;;;;;1.55;1.02;;;12.40;99.90;;;;;;4856251;29;20072;-81
2023/09/25 05:57:01;;;;;;;2.22;1.30;;;12.40;99.90;;;;;;4846072;29;20066;-80
2023/09/25 05:59:28;;;;;;;1.67;1.13;;;12.40;99.90;;;;;;4857954;29;20037;-81
2023/09/25 06:01:53;;;;;;;1.45;0.90;;;12.40;99.90;;;;;;4843419;29;20048;-81
2023/09/25 06:04:19;;;;;;;2.20;1.17;;;12.40;99.90;;;;;;4822349;29;20405;-81
2023/09/25 06:06:45;;;;;;;1.50;1.10;;;12.50;99.90;;;;;;4853764;29;20409;-81
2023/09/25 06:09:15;;;;;;;1.52;1.10;;;12.40;99.90;;;;;;4851146;29;20053;-78
2023/09/25 06:11:42;;;;;;;2.30;1.48;;;12.50;99.90;;;;;;4844517;29;20197;-79
2023/09/25 06:14:09;;;;;;;1.70;1.20;;;12.50;99.90;;;;;;4830603;29;20049;-80
2023/09/25 06:16:36;;;;;;;1.30;1.00;;;12.50;99.90;;;;;;4850673;29;20049;-81
2023/09/25 06:19:05;;;;;;;2.53;1.02;;;12.50;99.90;;;;;;4859995;29;20041;-81
2023/09/25 06:21:32;;;;;;;1.65;1.10;;;12.60;99.90;;;;;;4859330;29;20480;-81
2023/09/25 06:23:58;;;;;;;1.40;1.00;;;12.60;99.90;;;;;;4859060;29;20493;-81
2023/09/25 06:26:27;;;;;;;1.27;1.00;;;12.60;99.90;;;;;;4856968;29;20041;-80
2023/09/25 06:28:53;;;;;;;1.25;1.00;;;12.70;99.90;;;;;;4859665;29;20052;-81
2023/09/25 06:31:20;;;;;;;2.05;1.10;;;12.70;99.90;;;;;;4841325;29;20573;-81
2023/09/25 06:33:45;;;;;;;;;;;12.70;99.90;;;;;;4859372;29;20080;-81
2023/09/25 06:36:11;;;;;;;2.08;1.20;;;12.70;99.90;;;;;;4859225;29;20028;-81
2023/09/25 06:38:37;;;;;;;2.67;1.20;;;12.80;99.90;;;;;;4858717;29;20485;-80
2023/09/25 06:41:03;;;;;;;1.35;1.05;;;12.80;99.90;;;;;;4843673;29;20048;-80
2023/09/25 06:43:29;;;;;;;1.48;1.15;;;12.80;99.90;;;;;;4862777;29;20113;-80
2023/09/25 06:45:54;;;;;;;1.42;1.10;;;12.90;99.90;;;;;;4829443;29;20508;-81
2023/09/25 06:48:21;;;;;;;0.82;0.80;;;12.90;99.90;;;;;;4862480;29;20113;-81
2023/09/25 06:50:47;;;;;;;1.23;1.00;;;13.00;99.90;;;;;;4862949;29;20116;-80
2023/09/25 06:53:13;;;;;;;2.65;1.27;;;13.00;99.90;;;;;;4863327;29;20045;-81
2023/09/25 06:55:39;;;;;;;2.67;1.10;;;13.00;99.90;;;;;;4863300;29;20124;-81
2023/09/25 06:58:05;;;;;;;;;;;13.10;99.90;;;;;;4864123;29;20101;-80
2023/09/25 07:00:31;;;;;;;2.13;1.15;;;13.10;99.90;;;;;;4863535;29;19923;-80
2023/09/25 07:02:57;;;;;;;1.75;0.90;;;13.20;99.90;;;;;;4863464;29;20132;-81
2023/09/25 07:05:22;;;;;;;1.05;0.77;;;13.20;99.90;;;;;;4863483;29;20045;-80
2023/09/25 07:07:50;;;;;;;1.10;1.00;;;13.20;99.90;;;;;;4848181;29;20055;-81
2023/09/25 07:10:16;;;;;;;1.30;0.82;;;13.30;99.90;;;;;;4848334;29;20057;-81
2023/09/25 07:12:42;;;;;;;1.33;0.85;;;13.30;99.90;;;;;;4833276;29;20044;-81
2023/09/25 07:15:08;;;;;;;1.42;1.10;;;13.30;99.90;;;;;;4848162;29;20423;-80
2023/09/25 07:17:34;;;;;;;;;;;13.40;99.90;;;;;;4863786;29;20437;-81
2023/09/25 07:20:00;;;;;;;1.35;1.00;;;13.40;99.90;;;;;;4863303;29;20007;-80
2023/09/25 07:22:27;;;;;;;1.60;1.17;;;13.40;99.90;;;;;;4863348;29;20055;-81
2023/09/25 07:24:53;;;;;;;1.45;1.00;;;13.50;99.90;;;;;;4863380;29;20056;-81
2023/09/25 07:27:19;;;;;;;;;;;13.50;99.90;;;;;;4848429;29;20053;-81
2023/09/25 07:29:46;;;;;;;3.53;1.13;;;13.60;99.90;;;;;;4863269;29;19924;-80
2023/09/25 07:32:12;;;;;;;1.50;0.95;;;13.60;99.90;;;;;;4845185;29;20045;-81
2023/09/25 07:34:45;;;;;;;2.33;1.10;;;13.70;99.90;;;;;;4850055;29;20092;-80
2023/09/25 07:37:12;;;;;;;1.30;0.90;;;13.70;99.90;;;;;;4855831;29;20104;-80
2023/09/25 07:39:40;;;;;;;0.90;0.75;;;13.80;99.90;;;;;;4862991;29;20087;-80
2023/09/25 07:42:09;;;;;;;1.52;0.80;;;13.90;99.90;;;;;;4844802;29;20067;-80
2023/09/25 07:44:35;;;;;;;1.40;0.90;;;13.90;99.90;;;;;;4858789;29;20069;-81
2023/09/25 07:47:06;;;;;;;0.80;0.75;;;14.10;99.90;;;;;;4863212;29;20127;-81
2023/09/25 07:49:44;;;;;;;1.08;0.85;;;14.10;99.90;;;;;;4845287;29;20053;-81
2023/09/25 07:52:17;;;;;;;1.92;1.00;;;14.30;99.90;;;;;;4863063;29;20409;-80
2023/09/25 07:54:44;;;;;;;1.10;1.00;;;14.30;99.90;;;;;;4848723;29;20127;-80
2023/09/25 07:57:19;;;;;;;1.30;1.00;;;14.40;99.90;;;;;;4862979;29;20048;-81
2023/09/25 07:59:46;;;;;;;0.90;0.80;;;14.60;99.90;;;;;;4862828;29;20442;-81
2023/09/25 08:02:16;;;;;;;1.30;1.13;;;14.70;99.90;;;;;;4863219;29;20493;-80
2023/09/25 08:04:43;;;;;;;1.92;1.17;;;14.80;99.90;;;;;;4862991;29;20115;-81
2023/09/25 08:07:09;;;;;;;1.80;1.10;;;14.80;99.90;;;;;;4862454;29;20049;-81
2023/09/25 08:09:36;;;;;;;1.75;1.10;;;14.80;99.90;;;;;;4839599;29;20053;-81
2023/09/25 08:12:03;;;;;;;1.27;1.00;;;14.80;99.90;;;;;;4827125;29;20073;-81
2023/09/25 08:14:29;;;;;;;1.48;1.05;;;14.90;99.90;;;;;;4862713;29;20045;-81
2023/09/25 08:16:54;;;;;;;2.38;1.20;;;14.90;99.90;;;;;;4862756;29;20429;-81
2023/09/25 08:19:22;;;;;;;2.28;1.33;;;15.00;99.90;;;;;;4862364;29;20185;-80
2023/09/25 08:21:50;;;;;;;1.15;0.80;;;15.00;99.90;;;;;;4847512;29;20053;-81
2023/09/25 08:24:16;;;;;;;1.15;1.00;;;15.10;99.90;;;;;;4847410;29;20049;-81
2023/09/25 08:26:46;;;;;;;1.38;1.10;;;15.10;99.90;;;;;;4832107;29;20051;-81
2023/09/25 08:29:12;;;;;;;1.20;0.90;;;15.10;99.90;;;;;;4861638;29;20060;-81
2023/09/25 08:31:39;;;;;;;1.58;1.13;;;15.20;99.90;;;;;;4862006;29;20525;-81
2023/09/25 08:34:04;;;;;;;;;;;15.30;99.90;;;;;;4862906;29;20045;-81
2023/09/25 08:36:30;;;;;;;1.58;1.10;;;15.30;99.90;;;;;;4862437;29;19923;-81
2023/09/25 08:38:56;;;;;;;1.58;1.02;;;15.40;99.90;;;;;;4861944;29;20041;-80
2023/09/25 08:41:24;;;;;;;1.02;0.90;;;15.50;99.90;;;;;;4861848;29;20121;-80
2023/09/25 08:43:52;;;;;;;2.97;1.20;;;15.50;99.90;;;;;;4861759;29;20116;-80
2023/09/25 08:46:18;;;;;;;1.45;1.00;;;15.60;99.90;;;;;;4861881;29;20055;-80
2023/09/25 08:48:45;;;;;;;1.73;1.30;;;15.70;99.90;;;;;;4846919;29;20064;-79
2023/09/25 08:51:11;;;;;;;2.13;1.10;;;15.80;99.90;;;;;;4861681;29;20072;-79
2023/09/25 08:53:37;;;;;;;;;;;15.90;99.90;;;;;;4862421;29;20041;-79
2023/09/25 08:56:04;;;;;;;2.40;1.20;;;16.00;26.10;;;;;;4862051;29;20033;-79
2023/09/25 08:58:31;;;;;;;2.58;1.65;;;16.10;62.80;;;;;;4846021;29;20497;-80
2023/09/25 09:00:58;;;;;;;1.55;1.20;;;16.20;68.60;;;;;;4861941;29;20092;-79
2023/09/25 09:03:27;;;;;;;1.90;1.30;;;16.20;8.90;;;;;;4861389;29;20045;-79
2023/09/25 09:05:53;;;;;;;1.33;0.93;;;16.30;11.40;;;;;;4830904;29;20036;-79
2023/09/25 09:08:19;;;;;;;1.90;1.05;;;16.40;15.20;;;;;;4860890;29;20053;-79
2023/09/25 09:10:45;;;;;;;1.23;0.98;;;16.50;1.00;;;;;;4847583;29;20048;-80
2023/09/25 09:13:10;;;;;;;;;;;16.50;1.00;;;;;;4846084;29;20037;-80
2023/09/25 09:15:38;;;;;;;1.60;1.05;;;16.60;1.00;;;;;;4845627;29;19923;-79
2023/09/25 09:18:21;;;;;;;1.65;1.15;;;16.60;21.60;;;;;;4845911;29;20056;-79
2023/09/25 09:20:47;;;;;;;2.15;1.10;;;16.70;1.00;;;;;;4844781;29;20106;-79
2023/09/25 09:23:14;;;;;;;1.60;1.25;;;16.80;27.90;;;;;;4861270;29;20041;-79
2023/09/25 09:25:44;;;;;;;1.70;0.90;;;16.80;58.50;;;;;;4860864;29;20053;-79
2023/09/25 09:28:10;;;;;;;1.73;1.00;;;16.90;40.70;;;;;;4861252;29;20092;-80
2023/09/25 09:30:36;;;;;;;;;;;16.90;55.00;;;;;;4843215;29;20510;-80
2023/09/25 09:33:02;;;;;;;1.38;1.10;;;16.90;90.40;;;;;;4860064;29;19919;-79
2023/09/25 09:35:28;;;;;;;1.65;0.95;;;17.00;50.50;;;;;;4861101;29;20073;-79
2023/09/25 09:37:54;;;;;;;;;;;17.10;54.30;;;;;;4846302;29;20076;-80
2023/09/25 09:40:25;;;;;;;1.23;0.85;;;17.10;10.40;;;;;;4861078;29;20381;-80
2023/09/25 09:42:52;;;;;;;1.90;1.13;;;17.20;28.40;;;;;;4860912;29;20060;-80
2023/09/25 09:45:18;;;;;;;1.58;1.10;;;17.20;37.10;;;;;;4830497;29;20061;-80
2023/09/25 09:47:46;;;;;;;2.05;1.25;;;17.30;1.00;;;;;;4860937;29;20052;-80
2023/09/25 09:50:12;;;;;;;2.58;1.30;;;17.30;1.00;;;;;;4873555;29;20445;-80
2023/09/25 09:52:39;;;;;;;1.65;1.10;;;17.30;1.00;;;;;;4861243;29;20041;-80
2023/09/25 09:55:09;;;;;;;1.95;1.10;;;17.40;28.00;;;;;;4845191;29;20493;-80
2023/09/25 09:57:35;;;;;;;1.35;1.00;;;17.50;1.00;;;;;;4860867;29;20095;-80
2023/09/25 10:00:01;;;;;;;3.13;1.20;;;17.60;16.80;;;;;;4830498;29;20044;-80
2023/09/25 10:02:28;;;;;;;;;;;17.70;1.00;;;;;;4861468;29;20603;-80
2023/09/25 10:04:55;;;;;;;1.92;1.23;;;17.70;1.00;;;;;;4860984;29;20018;-80
2023/09/25 10:07:21;;;;;;;1.65;1.05;;;17.70;1.00;;;;;;4845699;29;20052;-80
2023/09/25 10:09:56;;;;;;;;;;;17.80;1.00;;;;;;4845749;29;20701;-80
2023/09/25 10:12:38;;;;;;;1.60;1.38;;;17.80;1.00;;;;;;4860848;29;20406;-80
2023/09/25 10:15:07;;;;;;;1.52;1.00;;;17.90;1.00;;;;;;4860995;29;20087;-80
2023/09/25 10:17:39;;;;;;;1.73;1.02;;;18.00;1.00;;;;;;4832298;29;20037;-80
2023/09/25 10:20:05;;;;;;;1.13;0.80;;;18.20;1.00;;;;;;4849259;29;20067;-80
2023/09/25 10:22:31;;;;;;;1.35;0.93;;;18.30;1.00;;;;;;4864860;29;20401;-80
2023/09/25 10:25:04;;;;;;;;;;;18.40;1.00;;;;;;4865032;29;20056;-81
2023/09/25 10:27:34;;;;;;;2.53;1.17;;;18.40;99.90;;;;;;4864140;29;20268;-80
2023/09/25 10:30:13;;;;;;;1.75;1.17;;;18.50;99.90;;;;;;4848637;29;20607;-80
2023/09/25 10:32:40;;;;;;;0.98;0.80;;;18.60;99.90;;;;;;4864101;29;20089;-80
2023/09/25 10:35:42;;;;;;;1.67;1.10;;;18.80;99.90;;;;;;4848632;29;20041;-80
2023/09/25 10:38:36;;;;;;;1.20;0.95;;;18.90;99.90;;;;;;4842066;29;20053;-80
2023/09/25 10:41:06;;;;;;;1.65;1.00;;;19.10;99.90;;;;;;4858467;29;20053;-80
2023/09/25 10:43:34;;;;;;;2.40;1.10;;;19.10;99.90;;;;;;4849316;29;20052;-80
2023/09/25 10:46:01;;;;;;;1.70;1.08;;;19.20;99.90;;;;;;4848924;29;20052;-80
2023/09/25 10:48:28;;;;;;;1.45;0.90;;;19.20;99.90;;;;;;4830045;29;20120;-80
2023/09/25 10:50:54;;;;;;;1.35;0.88;;;19.30;99.90;;;;;;4856456;29;20068;-80
2023/09/25 10:53:23;;;;;;;1.52;0.98;;;19.50;99.90;;;;;;4848651;29;20037;-80
2023/09/25 10:55:49;;;;;;;1.42;0.80;;;19.70;99.90;;;;;;4848525;29;20045;-79
2023/09/25 10:58:17;;;;;;;1.52;1.10;;;19.80;99.90;;;;;;4848280;29;20056;-79
2023/09/25 11:00:43;;;;;;;1.25;1.00;;;19.80;84.40;;;;;;4863624;29;20516;-79
2023/09/25 11:03:10;;;;;;;1.98;1.20;;;19.80;26.60;;;;;;4848380;29;20049;-80
2023/09/25 11:05:37;;;;;;;1.75;1.00;;;19.90;99.90;;;;;;4863587;29;20048;-79
2023/09/25 11:08:05;;;;;;;1.48;1.08;;;20.00;99.90;;;;;;4864278;29;20108;-80
2023/09/25 11:10:34;;;;;;;1.45;0.82;;;20.20;99.90;;;;;;4850317;29;20570;-79
2023/09/25 11:13:00;;;;;;;1.00;0.80;;;20.20;89.10;;;;;;4875643;29;20041;-80
2023/09/25 11:15:33;;;;;;;1.20;0.70;;;20.20;99.90;;;;;;4864458;29;20413;-80
2023/09/25 11:17:59;;;;;;;1.27;0.80;;;20.30;99.90;;;;;;4864570;29;20049;-80
2023/09/25 11:20:30;;;;;;;1.10;0.90;;;20.40;70.70;;;;;;4864562;29;20393;-79
2023/09/25 11:23:15;;;;;;;1.42;0.98;;;20.50;1.00;;;;;;4845853;29;20045;-79
2023/09/25 11:25:47;;;;;;;0.80;0.70;;;20.60;1.00;;;;;;4844027;29;20061;-79
2023/09/25 11:28:14;;;;;;;1.05;0.70;;;20.60;1.00;;;;;;4848111;29;20049;-79
2023/09/25 11:30:41;;;;;;;1.05;0.80;;;20.70;1.00;;;;;;4863981;29;20085;-79
2023/09/25 11:33:11;;;;;;;1.30;0.77;;;20.80;1.00;;;;;;4863608;29;20044;-80
2023/09/25 11:35:38;;;;;;;1.02;0.70;;;20.90;1.00;;;;;;4863047;29;20177;-80
2023/09/25 11:38:13;;;;;;;1.65;0.95;;;21.10;1.00;;;;;;4850046;29;20393;-80
2023/09/25 11:40:39;;;;;;;2.08;1.00;;;21.00;99.90;;;;;;4878118;29;20053;-79
2023/09/25 11:43:08;;;;;;;0.90;0.80;;;21.00;1.00;;;;;;4863091;29;20509;-79
2023/09/25 11:45:34;;;;;;;1.52;0.80;;;20.90;1.00;;;;;;4863385;29;20079;-80
2023/09/25 11:48:03;;;;;;;1.60;1.00;;;20.80;1.00;;;;;;4863718;29;20500;-79
2023/09/25 11:50:29;;;;;;;1.90;0.90;;;20.80;1.00;;;;;;4863815;29;20051;-80
2023/09/25 11:52:55;;;;;;;0.80;0.70;;;20.70;21.40;;;;;;4863461;29;20385;-80
2023/09/25 11:55:21;;;;;;;0.90;0.70;;;20.70;68.40;;;;;;4863289;29;20064;-79
2023/09/25 11:57:47;;;;;;;1.00;0.77;;;20.60;27.10;;;;;;4863315;29;20047;-80
2023/09/25 12:00:15;;;;;;;1.00;0.70;;;20.60;12.50;;;;;;4847673;29;20048;-79
2023/09/25 12:02:43;;;;;;;1.30;1.00;;;20.80;9.60;;;;;;4862941;29;20057;-79
2023/09/25 12:05:09;;;;;;;1.35;0.70;;;20.90;1.00;;;;;;4863207;29;20056;-79
2023/09/25 12:07:36;;;;;;;1.05;0.65;;;21.20;32.40;;;;;;4863144;29;20072;-79
2023/09/25 12:10:07;;;;;;;0.90;0.80;;;21.50;1.00;;;;;;4821902;29;20070;-79
2023/09/25 12:12:36;;;;;;;1.20;0.90;;;21.90;1.00;;;;;;4828372;29;20077;-79
2023/09/25 12:15:03;;;;;;;1.67;0.80;;;22.20;1.00;;;;;;4854918;29;20045;-80
2023/09/25 12:17:30;;;;;;;2.13;1.10;;;22.20;99.90;;;;;;4863275;29;20041;-80
2023/09/25 12:20:11;;;;;;;0.63;0.60;;;22.20;99.90;;;;;;4862944;29;20055;-79
2023/09/25 12:22:40;;;;;;;1.48;0.90;;;22.20;99.90;;;;;;4832978;29;20378;-79
2023/09/25 12:25:09;;;;;;;2.00;0.93;;;22.20;99.90;;;;;;4863072;29;20084;-80
2023/09/25 12:27:36;;;;;;;2.08;1.10;;;22.00;99.90;;;;;;4863864;29;20049;-79
2023/09/25 12:30:03;;;;;;;1.20;0.73;;;22.00;99.90;;;;;;4873456;29;20104;-79
2023/09/25 12:32:29;;;;;;;1.92;1.00;;;21.80;99.90;;;;;;4863364;29;20702;-80
2023/09/25 12:34:55;;;;;;;1.77;1.15;;;21.70;1.00;;;;;;4863069;29;20123;-80
2023/09/25 12:37:21;;;;;;;1.20;0.90;;;21.70;99.90;;;;;;4874501;29;20556;-79
2023/09/25 12:39:47;;;;;;;1.30;1.00;;;21.50;99.90;;;;;;4863047;29;20369;-80
2023/09/25 12:42:13;;;;;;;1.40;0.80;;;21.20;99.90;;;;;;4862913;29;20068;-79
2023/09/25 12:44:39;;;;;;;1.20;0.80;;;21.10;99.90;;;;;;4862496;29;20065;-79
2023/09/25 12:47:05;;;;;;;1.00;0.75;;;21.00;1.00;;;;;;4862511;29;20049;-79
2023/09/25 12:49:30;;;;;;;0.70;0.60;;;20.90;1.30;;;;;;4862468;29;20507;-79
2023/09/25 12:51:56;;;;;;;0.80;0.65;;;20.90;36.80;;;;;;4862564;29;20386;-79